Time;durP1;ratioP1;P1;durP2;ratioP2;P2;SDS_P1;SDS_P2;PMS_P1;PMS_P2;Temp;Humidity;BMP_temperature;BMP_pressure;BME280_temperature;BME280_humidity;BME280_pressure;Samples;Min_cycle;Max_cycle;Signal;HPM_P1;HPM_P2
2022/04/09 00:00:13;;;;;;;6.78;2.50;;;;;;;;;;5054111;28;20032;-75
2022/04/09 00:02:39;;;;;;;7.97;2.35;;;;;;;;;;5057901;28;20032;-75
2022/04/09 00:05:05;;;;;;;8.55;2.15;;;;;;;;;;5060254;28;20106;-76
2022/04/09 00:07:30;;;;;;;6.57;2.58;;;;;;;;;;5058509;28;20037;-77
2022/04/09 00:09:56;;;;;;;10.15;2.38;;;;;;;;;;5060394;28;20529;-77
2022/04/09 00:12:21;;;;;;;7.30;2.22;;;;;;;;;;5047169;28;20032;-76
2022/04/09 00:14:46;;;;;;;6.47;2.40;;;;;;;;;;5056688;28;20325;-77
2022/04/09 00:17:12;;;;;;;5.38;1.95;;;;;;;;;;5051245;28;20028;-75
2022/04/09 00:19:37;;;;;;;9.65;2.60;;;;;;;;;;5061433;28;20079;-75
2022/04/09 00:22:03;;;;;;;4.25;1.70;;;;;;;;;;5060094;28;20028;-73
2022/04/09 00:24:28;;;;;;;6.47;2.65;;;;;;;;;;5060356;28;20063;-74
2022/04/09 00:26:54;;;;;;;8.27;2.53;;;;;;;;;;5041321;28;20029;-74
2022/04/09 00:29:19;;;;;;;6.93;2.40;;;;;;;;;;5061364;28;20029;-73
2022/04/09 00:31:44;;;;;;;6.65;2.47;;;;;;;;;;5052138;28;20986;-76
2022/04/09 00:34:10;;;;;;;5.88;2.22;;;;;;;;;;5055685;28;20382;-75
2022/04/09 00:36:35;;;;;;;5.03;2.00;;;;;;;;;;5058730;28;20053;-75
2022/04/09 00:39:00;;;;;;;11.55;2.90;;;;;;;;;;5058879;28;20040;-77
2022/04/09 00:41:26;;;;;;;7.00;1.80;;;;;;;;;;5057250;28;20028;-75
2022/04/09 00:43:51;;;;;;;6.13;2.67;;;;;;;;;;5059209;28;20439;-74
2022/04/09 00:46:16;;;;;;;8.85;2.55;;;;;;;;;;5061830;28;20042;-75
2022/04/09 00:48:42;;;;;;;6.40;2.88;;;;;;;;;;5059947;28;20635;-75
2022/04/09 00:51:08;;;;;;;6.38;2.60;;;;;;;;;;5052021;28;20036;-75
2022/04/09 00:53:39;;;;;;;9.18;2.20;;;;;;;;;;5052482;28;20095;-77
2022/04/09 00:56:15;;;;;;;6.80;2.55;;;;;;;;;;5061243;28;20029;-75
2022/04/09 00:58:46;;;;;;;18.00;4.00;;;;;;;;;;5060556;28;20025;-74
2022/04/09 01:01:11;;;;;;;13.00;4.57;;;;;;;;;;5059187;28;20033;-73
2022/04/09 01:03:37;;;;;;;11.30;4.55;;;;;;;;;;5061546;28;20039;-75
2022/04/09 01:06:05;;;;;;;13.07;5.75;;;;;;;;;;5058871;28;20027;-76
2022/04/09 01:08:30;;;;;;;12.65;5.60;;;;;;;;;;5056350;28;20514;-74
2022/04/09 01:10:56;;;;;;;13.35;4.82;;;;;;;;;;5058762;28;20115;-76
2022/04/09 01:13:21;;;;;;;10.15;3.63;;;;;;;;;;5050565;28;20043;-73
2022/04/09 01:15:46;;;;;;;7.97;3.83;;;;;;;;;;5058328;28;20068;-76
2022/04/09 01:18:12;;;;;;;6.93;2.95;;;;;;;;;;5055247;28;20029;-76
2022/04/09 01:20:37;;;;;;;11.05;3.33;;;;;;;;;;5056713;28;20056;-76
2022/04/09 01:23:03;;;;;;;11.35;3.10;;;;;;;;;;5057452;28;20171;-75
2022/04/09 01:25:28;;;;;;;5.43;2.30;;;;;;;;;;5059492;28;20098;-74
2022/04/09 01:27:53;;;;;;;7.63;2.70;;;;;;;;;;5057619;28;20051;-78
2022/04/09 01:30:19;;;;;;;6.28;1.90;;;;;;;;;;5059222;28;20060;-74
2022/04/09 01:32:44;;;;;;;6.10;2.30;;;;;;;;;;5057249;28;20028;-74
2022/04/09 01:35:10;;;;;;;7.40;2.67;;;;;;;;;;5056619;28;20043;-74
2022/04/09 01:37:35;;;;;;;7.93;2.65;;;;;;;;;;5054792;28;20035;-76
2022/04/09 01:40:00;;;;;;;5.47;1.92;;;;;;;;;;5058478;28;20024;-75
2022/04/09 01:42:28;;;;;;;5.75;2.10;;;;;;;;;;5059680;28;20048;-75
2022/04/09 01:44:54;;;;;;;8.10;2.20;;;;;;;;;;5058788;28;20065;-75
2022/04/09 01:47:19;;;;;;;11.18;2.60;;;;;;;;;;5058851;28;20078;-77
2022/04/09 01:49:45;;;;;;;7.18;2.10;;;;;;;;;;5057626;28;20037;-74
2022/04/09 01:52:10;;;;;;;5.65;2.28;;;;;;;;;;5057175;28;20024;-77
2022/04/09 01:54:37;;;;;;;11.40;3.50;;;;;;;;;;5058784;28;20048;-75
2022/04/09 01:57:02;;;;;;;7.65;3.30;;;;;;;;;;5057941;28;20036;-75
2022/04/09 01:59:27;;;;;;;9.95;3.05;;;;;;;;;;5057446;28;20135;-75
2022/04/09 02:01:53;;;;;;;8.60;2.90;;;;;;;;;;5045065;28;20082;-75
2022/04/09 02:04:18;;;;;;;8.20;2.63;;;;;;;;;;5057384;28;20419;-73
2022/04/09 02:06:44;;;;;;;10.68;4.28;;;;;;;;;;5058732;28;20020;-75
2022/04/09 02:09:13;;;;;;;10.52;3.70;;;;;;;;;;5058155;28;20356;-75
2022/04/09 02:11:41;;;;;;;6.32;2.75;;;;;;;;;;5058695;28;20035;-73
2022/04/09 02:14:08;;;;;;;11.75;3.63;;;;;;;;;;5057215;28;20436;-78
2022/04/09 02:16:33;;;;;;;8.82;3.10;;;;;;;;;;5055343;28;20020;-74
2022/04/09 02:18:59;;;;;;;9.30;3.38;;;;;;;;;;5049604;28;20108;-74
2022/04/09 02:21:24;;;;;;;8.25;3.22;;;;;;;;;;5059986;28;20357;-74
2022/04/09 02:23:49;;;;;;;9.80;2.78;;;;;;;;;;5064010;28;20020;-74
2022/04/09 02:26:15;;;;;;;6.40;2.20;;;;;;;;;;5063931;28;20111;-75
2022/04/09 02:28:41;;;;;;;7.68;2.50;;;;;;;;;;5059998;28;20024;-75
2022/04/09 02:31:06;;;;;;;6.63;2.53;;;;;;;;;;5056995;28;20032;-75
2022/04/09 02:33:32;;;;;;;8.60;3.22;;;;;;;;;;5051193;28;20021;-76
2022/04/09 02:35:57;;;;;;;11.52;3.25;;;;;;;;;;5045887;28;20376;-77
2022/04/09 02:38:24;;;;;;;9.55;3.63;;;;;;;;;;5045895;28;20462;-73
2022/04/09 02:40:49;;;;;;;7.28;2.72;;;;;;;;;;5046527;28;20042;-73
2022/04/09 02:43:14;;;;;;;7.57;2.72;;;;;;;;;;5051942;28;20466;-74
2022/04/09 02:45:40;;;;;;;15.38;5.57;;;;;;;;;;5059002;28;20083;-74
2022/04/09 02:48:06;;;;;;;40.15;13.43;;;;;;;;;;5058200;28;20039;-75
2022/04/09 02:50:31;;;;;;;23.70;11.65;;;;;;;;;;5058545;28;20028;-76
2022/04/09 02:52:57;;;;;;;11.95;5.85;;;;;;;;;;5059080;28;20020;-75
2022/04/09 02:55:22;;;;;;;17.77;7.63;;;;;;;;;;5058370;28;20336;-75
2022/04/09 02:57:48;;;;;;;10.82;3.85;;;;;;;;;;5056944;28;20466;-75
2022/04/09 03:00:14;;;;;;;12.50;4.50;;;;;;;;;;5053363;28;20033;-75
2022/04/09 03:02:40;;;;;;;19.08;7.75;;;;;;;;;;5056045;28;20035;-75
2022/04/09 03:05:06;;;;;;;8.18;4.03;;;;;;;;;;5057794;28;20025;-74
2022/04/09 03:07:31;;;;;;;6.60;2.67;;;;;;;;;;5057494;28;20090;-77
2022/04/09 03:09:57;;;;;;;6.72;2.45;;;;;;;;;;5039388;28;20037;-76
2022/04/09 03:12:22;;;;;;;9.75;2.58;;;;;;;;;;5057925;28;20049;-75
2022/04/09 03:14:47;;;;;;;6.80;3.55;;;;;;;;;;5057298;28;20031;-74
2022/04/09 03:17:13;;;;;;;8.65;2.45;;;;;;;;;;5059531;28;20057;-75
2022/04/09 03:19:38;;;;;;;7.22;2.55;;;;;;;;;;5062312;28;20050;-74
2022/04/09 03:22:03;;;;;;;8.20;2.55;;;;;;;;;;5061905;28;20024;-74
2022/04/09 03:24:29;;;;;;;8.98;2.50;;;;;;;;;;5062175;28;20352;-74
2022/04/09 03:26:54;;;;;;;4.13;1.90;;;;;;;;;;5062404;28;20028;-75
2022/04/09 03:29:20;;;;;;;5.82;2.00;;;;;;;;;;5060957;28;20028;-75
2022/04/09 03:31:45;;;;;;;6.10;2.15;;;;;;;;;;5060131;28;20412;-75
2022/04/09 03:34:10;;;;;;;5.25;2.15;;;;;;;;;;5061285;28;20538;-76
2022/04/09 03:36:37;;;;;;;6.65;2.22;;;;;;;;;;5057867;28;20025;-78
2022/04/09 03:39:02;;;;;;;10.38;3.22;;;;;;;;;;5048256;28;20440;-74
2022/04/09 03:41:27;;;;;;;5.35;2.67;;;;;;;;;;5051603;28;20028;-74
2022/04/09 03:43:53;;;;;;;7.13;2.20;;;;;;;;;;5060755;28;20181;-75
2022/04/09 03:46:18;;;;;;;11.25;4.65;;;;;;;;;;5058489;28;20035;-76
2022/04/09 03:48:44;;;;;;;6.25;2.13;;;;;;;;;;5061172;28;20068;-75
2022/04/09 03:51:10;;;;;;;6.45;2.20;;;;;;;;;;5060069;28;20028;-78
2022/04/09 03:53:35;;;;;;;8.30;3.72;;;;;;;;;;5061625;28;20039;-75
2022/04/09 03:56:00;;;;;;;6.60;2.58;;;;;;;;;;5057903;28;20112;-76
2022/04/09 03:58:26;;;;;;;5.15;2.55;;;;;;;;;;5060628;28;20447;-74
2022/04/09 04:00:52;;;;;;;11.27;2.50;;;;;;;;;;5042932;28;20112;-75
2022/04/09 04:03:19;;;;;;;9.13;4.68;;;;;;;;;;5046940;28;20115;-78
2022/04/09 04:05:45;;;;;;;10.23;3.15;;;;;;;;;;5059874;28;20025;-75
2022/04/09 04:08:11;;;;;;;16.77;11.30;;;;;;;;;;5059550;28;20036;-75
2022/04/09 04:10:37;;;;;;;13.80;9.65;;;;;;;;;;5058272;28;20025;-74
2022/04/09 04:13:03;;;;;;;17.13;9.52;;;;;;;;;;5061204;28;20024;-76
2022/04/09 04:15:28;;;;;;;12.07;5.85;;;;;;;;;;5062025;28;20042;-77
2022/04/09 04:17:55;;;;;;;11.93;5.05;;;;;;;;;;5058526;28;20426;-75
2022/04/09 04:20:20;;;;;;;7.78;3.88;;;;;;;;;;5061340;28;20020;-76
2022/04/09 04:22:46;;;;;;;10.73;5.07;;;;;;;;;;5062184;28;20097;-74
2022/04/09 04:25:11;;;;;;;12.20;4.88;;;;;;;;;;5059871;28;20038;-75
2022/04/09 04:27:43;;;;;;;9.02;4.05;;;;;;;;;;5060069;28;20036;-75
2022/04/09 04:30:08;;;;;;;10.65;5.03;;;;;;;;;;5039934;28;20044;-75
2022/04/09 04:32:33;;;;;;;5.65;2.78;;;;;;;;;;5056697;28;20025;-74
2022/04/09 04:34:59;;;;;;;8.27;2.40;;;;;;;;;;5057498;28;20530;-75
2022/04/09 04:37:24;;;;;;;8.70;3.33;;;;;;;;;;5062826;28;20025;-75
2022/04/09 04:39:50;;;;;;;9.40;3.47;;;;;;;;;;5057376;28;20032;-76
2022/04/09 04:42:15;;;;;;;13.85;8.30;;;;;;;;;;5059605;28;20056;-76
2022/04/09 04:44:40;;;;;;;11.23;6.10;;;;;;;;;;5059271;28;20055;-74
2022/04/09 04:47:06;;;;;;;13.00;5.53;;;;;;;;;;5059377;28;20521;-76
2022/04/09 04:49:32;;;;;;;7.10;3.25;;;;;;;;;;5061306;28;20127;-75
2022/04/09 04:51:57;;;;;;;7.32;4.15;;;;;;;;;;5059819;28;20411;-74
2022/04/09 04:54:22;;;;;;;13.85;6.22;;;;;;;;;;5049748;28;20332;-74
2022/04/09 04:56:48;;;;;;;8.48;3.35;;;;;;;;;;5046254;28;20765;-75
2022/04/09 04:59:15;;;;;;;7.05;3.00;;;;;;;;;;5042093;28;20103;-76
2022/04/09 05:01:40;;;;;;;8.27;2.70;;;;;;;;;;5045894;28;20024;-74
2022/04/09 05:04:06;;;;;;;7.95;3.28;;;;;;;;;;5044306;28;20094;-75
2022/04/09 05:06:31;;;;;;;6.57;2.90;;;;;;;;;;5045860;28;20096;-75
2022/04/09 05:08:57;;;;;;;10.82;2.67;;;;;;;;;;5045899;28;20390;-74
2022/04/09 05:11:23;;;;;;;7.85;4.18;;;;;;;;;;5043898;28;20029;-76
2022/04/09 05:13:48;;;;;;;6.35;2.70;;;;;;;;;;5046352;28;20127;-76
2022/04/09 05:16:13;;;;;;;11.45;3.05;;;;;;;;;;5045222;28;20416;-74
2022/04/09 05:18:39;;;;;;;4.85;2.67;;;;;;;;;;5043331;28;20354;-77
2022/04/09 05:21:04;;;;;;;5.65;2.53;;;;;;;;;;5045873;28;20032;-75
2022/04/09 05:23:30;;;;;;;5.40;2.80;;;;;;;;;;5044012;28;20031;-75
2022/04/09 05:25:55;;;;;;;8.65;2.60;;;;;;;;;;5043729;28;20098;-76
2022/04/09 05:28:20;;;;;;;11.02;2.38;;;;;;;;;;5042660;28;20037;-75
2022/04/09 05:30:46;;;;;;;6.38;2.10;;;;;;;;;;5045293;28;20031;-75
2022/04/09 05:33:11;;;;;;;5.97;2.55;;;;;;;;;;5046386;28;20024;-77
2022/04/09 05:35:36;;;;;;;6.40;2.42;;;;;;;;;;5056429;28;20060;-74
2022/04/09 05:38:03;;;;;;;4.57;1.83;;;;;;;;;;5059289;28;20040;-75
2022/04/09 05:40:29;;;;;;;7.65;2.35;;;;;;;;;;5056739;28;20024;-76
2022/04/09 05:42:54;;;;;;;7.10;2.42;;;;;;;;;;5056064;28;20020;-75
2022/04/09 05:45:19;;;;;;;5.93;2.35;;;;;;;;;;5057212;28;20055;-74
2022/04/09 05:47:45;;;;;;;13.82;2.70;;;;;;;;;;5057002;28;20416;-72
2022/04/09 05:50:11;;;;;;;6.60;2.15;;;;;;;;;;5058842;28;20325;-75
2022/04/09 05:52:37;;;;;;;11.63;3.40;;;;;;;;;;5046268;28;20108;-74
2022/04/09 05:55:03;;;;;;;11.40;3.78;;;;;;;;;;5058355;28;20043;-76
2022/04/09 05:57:29;;;;;;;5.55;1.70;;;;;;;;;;5060788;28;20324;-76
2022/04/09 05:59:54;;;;;;;9.15;2.10;;;;;;;;;;5045010;28;20048;-74
2022/04/09 06:02:20;;;;;;;5.82;2.33;;;;;;;;;;5051960;28;20368;-73
2022/04/09 06:04:45;;;;;;;10.35;1.90;;;;;;;;;;5056343;28;20435;-71
2022/04/09 06:07:13;;;;;;;8.77;2.38;;;;;;;;;;5058394;28;20028;-72
2022/04/09 06:09:38;;;;;;;6.80;2.10;;;;;;;;;;5055874;28;20358;-73
2022/04/09 06:12:06;;;;;;;5.85;2.00;;;;;;;;;;5056539;28;20115;-74
2022/04/09 06:14:31;;;;;;;5.53;1.92;;;;;;;;;;5055567;28;20017;-76
2022/04/09 06:16:57;;;;;;;7.07;1.95;;;;;;;;;;5051182;28;20086;-76
2022/04/09 06:19:22;;;;;;;5.78;1.90;;;;;;;;;;5054519;28;20043;-75
2022/04/09 06:21:47;;;;;;;4.70;1.73;;;;;;;;;;5055615;28;20408;-76
2022/04/09 06:24:13;;;;;;;7.13;2.38;;;;;;;;;;5053633;28;20021;-71
2022/04/09 06:26:38;;;;;;;6.18;1.95;;;;;;;;;;5050305;28;21083;-75
2022/04/09 06:29:04;;;;;;;8.60;2.40;;;;;;;;;;5058449;28;20048;-75
2022/04/09 06:31:29;;;;;;;6.90;2.22;;;;;;;;;;5046153;28;20056;-72
2022/04/09 06:33:55;;;;;;;8.48;2.05;;;;;;;;;;5042658;28;20329;-74
2022/04/09 06:36:20;;;;;;;10.60;2.75;;;;;;;;;;5047416;28;20459;-83
2022/04/09 06:38:46;;;;;;;7.05;2.25;;;;;;;;;;5051338;28;20436;-74
2022/04/09 06:41:11;;;;;;;5.38;1.63;;;;;;;;;;5048574;28;20111;-81
2022/04/09 06:43:36;;;;;;;12.20;4.53;;;;;;;;;;5046592;28;20473;-76
2022/04/09 06:46:02;;;;;;;6.57;2.92;;;;;;;;;;5056233;28;20358;-74
2022/04/09 06:48:27;;;;;;;4.68;1.83;;;;;;;;;;5053058;28;20043;-72
2022/04/09 06:50:53;;;;;;;5.22;2.08;;;;;;;;;;5056930;28;20086;-74
2022/04/09 06:53:18;;;;;;;5.15;2.00;;;;;;;;;;5050339;28;20031;-73
2022/04/09 06:55:43;;;;;;;7.82;2.08;;;;;;;;;;5052642;28;20447;-76
2022/04/09 06:58:09;;;;;;;3.83;1.73;;;;;;;;;;5049756;28;20043;-75
2022/04/09 07:00:34;;;;;;;5.57;2.05;;;;;;;;;;5052330;28;20475;-80
2022/04/09 07:03:02;;;;;;;5.70;2.53;;;;;;;;;;5052539;28;20042;-76
2022/04/09 07:05:28;;;;;;;11.30;3.33;;;;;;;;;;5057501;28;20036;-75
2022/04/09 07:07:53;;;;;;;12.15;3.38;;;;;;;;;;5058569;28;20091;-77
2022/04/09 07:10:18;;;;;;;21.05;4.20;;;;;;;;;;5056823;28;20110;-74
2022/04/09 07:12:44;;;;;;;10.88;2.60;;;;;;;;;;5051763;28;20407;-77
2022/04/09 07:15:09;;;;;;;8.82;2.00;;;;;;;;;;5065584;28;20037;-77
2022/04/09 07:17:35;;;;;;;9.30;1.65;;;;;;;;;;5063573;28;20028;-76
2022/04/09 07:20:09;;;;;;;4.07;2.08;;;;;;;;;;5062805;28;20424;-80
2022/04/09 07:22:35;;;;;;;6.70;2.20;;;;;;;;;;5065266;28;20120;-75
2022/04/09 07:25:01;;;;;;;7.80;2.47;;;;;;;;;;5058648;28;20016;-74
2022/04/09 07:27:36;;;;;;;7.68;4.10;;;;;;;;;;5050656;28;20432;-77
2022/04/09 07:30:02;;;;;;;7.80;2.83;;;;;;;;;;5061656;28;20024;-74
2022/04/09 07:32:27;;;;;;;8.57;4.38;;;;;;;;;;5061538;28;20397;-74
2022/04/09 07:34:53;;;;;;;15.13;6.22;;;;;;;;;;5063860;28;20028;-75
2022/04/09 07:37:19;;;;;;;11.23;6.35;;;;;;;;;;5061984;28;20046;-78
2022/04/09 07:39:44;;;;;;;10.93;5.35;;;;;;;;;;5063971;28;20128;-73
2022/04/09 07:42:09;;;;;;;13.63;7.20;;;;;;;;;;5058582;28;20155;-78
2022/04/09 07:44:35;;;;;;;12.52;6.57;;;;;;;;;;5062245;28;20045;-73
2022/04/09 07:47:00;;;;;;;6.00;2.15;;;;;;;;;;5063536;28;20146;-76
2022/04/09 07:49:25;;;;;;;4.93;2.28;;;;;;;;;;5056969;28;20036;-75
2022/04/09 07:51:51;;;;;;;12.10;4.82;;;;;;;;;;5054545;28;20467;-77
2022/04/09 07:54:16;;;;;;;9.38;2.75;;;;;;;;;;5055621;28;20020;-77
2022/04/09 07:56:41;;;;;;;5.22;2.33;;;;;;;;;;5056403;28;20032;-77
2022/04/09 07:59:07;;;;;;;12.43;6.55;;;;;;;;;;5062720;28;20063;-79
2022/04/09 08:01:32;;;;;;;7.57;2.78;;;;;;;;;;5059158;28;20479;-76
2022/04/09 08:03:58;;;;;;;6.40;2.28;;;;;;;;;;5046194;28;20063;-74
2022/04/09 08:06:23;;;;;;;5.18;1.70;;;;;;;;;;5047502;28;21037;-75
2022/04/09 08:08:48;;;;;;;4.78;2.38;;;;;;;;;;5050415;28;20041;-73
2022/04/09 08:11:13;;;;;;;5.18;2.17;;;;;;;;;;5049384;28;20043;-77
2022/04/09 08:13:39;;;;;;;6.18;1.92;;;;;;;;;;5059619;28;20469;-77
2022/04/09 08:16:04;;;;;;;17.25;3.03;;;;;;;;;;5060850;28;20454;-78
2022/04/09 08:18:30;;;;;;;5.28;2.20;;;;;;;;;;5060273;28;20024;-75
2022/04/09 08:20:55;;;;;;;7.18;2.13;;;;;;;;;;5056060;28;20021;-81
2022/04/09 08:23:20;;;;;;;9.73;1.80;;;;;;;;;;5048538;28;20028;-80
2022/04/09 08:25:46;;;;;;;8.23;2.20;;;;;;;;;;5044311;28;20029;-78
2022/04/09 08:28:11;;;;;;;5.93;2.00;;;;;;;;;;5056643;28;20036;-77
2022/04/09 08:30:38;;;;;;;7.43;2.22;;;;;;;;;;5052161;28;20078;-81
2022/04/09 08:33:07;;;;;;;5.00;1.77;;;;;;;;;;5056442;28;20422;-74
2022/04/09 08:35:32;;;;;;;2.58;1.30;;;;;;;;;;5059209;28;20024;-72
2022/04/09 08:37:58;;;;;;;3.83;1.85;;;;;;;;;;5047020;28;20352;-71
2022/04/09 08:40:23;;;;;;;6.43;1.65;;;;;;;;;;5045999;28;20021;-71
2022/04/09 08:42:49;;;;;;;5.32;2.10;;;;;;;;;;5044450;28;20074;-80
2022/04/09 08:45:17;;;;;;;9.88;3.20;;;;;;;;;;5043484;28;20052;-77
2022/04/09 08:47:43;;;;;;;6.15;2.08;;;;;;;;;;5059900;28;20072;-77
2022/04/09 08:50:12;;;;;;;3.70;1.50;;;;;;;;;;5043283;28;20487;-79
2022/04/09 08:52:39;;;;;;;3.92;1.42;;;;;;;;;;5047680;28;20024;-78
2022/04/09 08:55:05;;;;;;;8.23;2.10;;;;;;;;;;5044055;28;20067;-77
2022/04/09 08:57:32;;;;;;;7.35;2.13;;;;;;;;;;5045627;28;20043;-78
2022/04/09 08:59:57;;;;;;;4.45;1.95;;;;;;;;;;5044596;28;20024;-77
2022/04/09 09:02:23;;;;;;;3.85;1.80;;;;;;;;;;5054203;28;20436;-78
2022/04/09 09:04:48;;;;;;;5.20;1.92;;;;;;;;;;5056183;28;20048;-78
2022/04/09 09:07:18;;;;;;;8.20;3.00;;;;;;;;;;5048766;28;20716;-78
2022/04/09 09:09:43;;;;;;;6.78;1.80;;;;;;;;;;5044827;28;20028;-76
2022/04/09 09:12:10;;;;;;;3.75;1.77;;;;;;;;;;5043616;28;20341;-76
2022/04/09 09:14:36;;;;;;;7.07;2.03;;;;;;;;;;5044341;28;20450;-73
2022/04/09 09:17:02;;;;;;;7.55;1.75;;;;;;;;;;5044375;28;20059;-75
2022/04/09 09:19:45;;;;;;;4.68;2.20;;;;;;;;;;5048491;28;20460;-72
2022/04/09 09:22:11;;;;;;;9.25;3.55;;;;;;;;;;5047372;28;20344;-71
2022/04/09 09:24:36;;;;;;;5.68;2.15;;;;;;;;;;5043440;28;20021;-71
2022/04/09 09:27:03;;;;;;;5.45;2.30;;;;;;;;;;5047057;28;20348;-73
2022/04/09 09:29:29;;;;;;;6.15;3.10;;;;;;;;;;5045150;28;20045;-75
2022/04/09 09:31:55;;;;;;;5.70;2.00;;;;;;;;;;5044883;28;20081;-71
2022/04/09 09:34:21;;;;;;;4.32;2.13;;;;;;;;;;5046614;28;20079;-76
2022/04/09 09:36:47;;;;;;;4.57;2.63;;;;;;;;;;5042385;28;20363;-73
2022/04/09 09:39:13;;;;;;;3.80;2.17;;;;;;;;;;5044211;28;20093;-75
2022/04/09 09:42:05;;;;;;;4.13;1.85;;;;;;;;;;5043135;28;20023;-73
2022/04/09 09:44:32;;;;;;;3.55;2.30;;;;;;;;;;5042975;28;20135;-74
2022/04/09 09:47:07;;;;;;;5.68;2.10;;;;;;;;;;5026299;28;20027;-75
2022/04/09 09:49:36;;;;;;;3.95;2.20;;;;;;;;;;5043205;28;20024;-74
2022/04/09 09:52:03;;;;;;;5.40;1.98;;;;;;;;;;5044041;28;20029;-73
2022/04/09 09:54:28;;;;;;;4.30;1.60;;;;;;;;;;5044256;28;20187;-75
2022/04/09 09:56:55;;;;;;;10.07;1.77;;;;;;;;;;5045205;28;20107;-74
2022/04/09 09:59:21;;;;;;;5.60;2.38;;;;;;;;;;5044754;28;20028;-78
2022/04/09 10:01:51;;;;;;;6.15;2.10;;;;;;;;;;5042984;28;20041;-76
2022/04/09 10:04:17;;;;;;;5.57;1.80;;;;;;;;;;5046480;28;20025;-77
2022/04/09 10:06:43;;;;;;;1.92;1.10;;;;;;;;;;5053850;28;20418;-73
2022/04/09 10:09:09;;;;;;;8.13;2.33;;;;;;;;;;5057604;28;20347;-76
2022/04/09 10:11:42;;;;;;;8.43;2.80;;;;;;;;;;5056481;28;20024;-76
2022/04/09 10:14:08;;;;;;;6.47;2.03;;;;;;;;;;5052907;28;20447;-77
2022/04/09 10:16:34;;;;;;;6.15;1.95;;;;;;;;;;5051154;28;20128;-78
2022/04/09 10:19:00;;;;;;;4.10;1.60;;;;;;;;;;5024989;28;20855;-79
2022/04/09 10:21:27;;;;;;;6.90;1.98;;;;;;;;;;5050486;28;20028;-78
2022/04/09 10:23:54;;;;;;;6.25;2.72;;;;;;;;;;5055480;28;20040;-77
2022/04/09 10:26:19;;;;;;;6.75;3.00;;;;;;;;;;5054522;28;20435;-75
2022/04/09 10:28:47;;;;;;;8.73;2.10;;;;;;;;;;5056610;28;20037;-78
2022/04/09 10:31:22;;;;;;;4.70;1.80;;;;;;;;;;5052882;28;20032;-77
2022/04/09 10:33:57;;;;;;;4.15;1.95;;;;;;;;;;5038846;28;20029;-77
2022/04/09 10:36:46;;;;;;;4.85;2.13;;;;;;;;;;5042436;28;20092;-78
2022/04/09 10:39:45;;;;;;;8.10;2.60;;;;;;;;;;5049794;28;20040;-77
2022/04/09 10:42:30;;;;;;;3.60;1.73;;;;;;;;;;5065588;28;20020;-78
2022/04/09 10:44:56;;;;;;;4.70;1.90;;;;;;;;;;5056830;28;20050;-75
2022/04/09 10:47:21;;;;;;;4.53;1.60;;;;;;;;;;5055253;28;20079;-77
2022/04/09 10:50:02;;;;;;;8.23;2.38;;;;;;;;;;5056359;28;20040;-73
2022/04/09 10:52:32;;;;;;;12.52;4.72;;;;;;;;;;5028176;28;20020;-76
2022/04/09 10:55:12;;;;;;;10.38;4.28;;;;;;;;;;5055569;28;20032;-77
2022/04/09 10:57:44;;;;;;;13.68;4.70;;;;;;;;;;5057126;28;20696;-76
2022/04/09 11:00:22;;;;;;;16.13;3.55;;;;;;;;;;5058945;28;20411;-73
2022/04/09 11:03:03;;;;;;;10.68;2.40;;;;;;;;;;5042444;28;20029;-76
2022/04/09 11:05:29;;;;;;;10.43;2.60;;;;;;;;;;5047778;28;20025;-74
2022/04/09 11:08:06;;;;;;;5.18;1.85;;;;;;;;;;5045586;28;20044;-77
2022/04/09 11:10:31;;;;;;;2.38;1.40;;;;;;;;;;5046815;28;20359;-76
2022/04/09 11:12:56;;;;;;;5.68;1.67;;;;;;;;;;5043998;28;20028;-77
2022/04/09 11:15:22;;;;;;;3.92;1.75;;;;;;;;;;5042731;28;20110;-76
2022/04/09 11:17:47;;;;;;;5.70;1.50;;;;;;;;;;5043302;28;20498;-76
2022/04/09 11:20:17;;;;;;;4.35;1.40;;;;;;;;;;5042390;28;20753;-77
2022/04/09 11:22:47;;;;;;;4.50;1.23;;;;;;;;;;5042870;28;20040;-76
2022/04/09 11:25:26;;;;;;;2.97;1.45;;;;;;;;;;5024929;28;20025;-77
2022/04/09 11:27:53;;;;;;;3.67;1.48;;;;;;;;;;5041442;28;20340;-75
2022/04/09 11:30:19;;;;;;;4.70;2.17;;;;;;;;;;5044923;28;20046;-79
2022/04/09 11:32:47;;;;;;;4.28;1.50;;;;;;;;;;5026133;28;20078;-74
2022/04/09 11:35:13;;;;;;;5.13;2.77;;;;;;;;;;5054814;28;20020;-75
2022/04/09 11:37:42;;;;;;;3.55;1.60;;;;;;;;;;5058054;28;20310;-76
2022/04/09 11:40:09;;;;;;;4.30;1.63;;;;;;;;;;5056214;28;20119;-75
2022/04/09 11:42:48;;;;;;;4.10;2.35;;;;;;;;;;5045995;28;20024;-75
2022/04/09 11:45:17;;;;;;;9.73;5.00;;;;;;;;;;5047504;28;20056;-78
2022/04/09 11:47:43;;;;;;;5.03;1.67;;;;;;;;;;5042844;28;20028;-78
2022/04/09 11:50:11;;;;;;;7.63;1.55;;;;;;;;;;5045525;28;20044;-80
2022/04/09 11:52:36;;;;;;;9.25;2.97;;;;;;;;;;5047012;28;20116;-74
2022/04/09 11:55:06;;;;;;;10.98;2.20;;;;;;;;;;5059208;28;20405;-76
2022/04/09 11:57:31;;;;;;;4.57;1.88;;;;;;;;;;5051512;28;20028;-78
2022/04/09 11:59:57;;;;;;;2.38;1.92;;;;;;;;;;5058037;28;20043;-75
2022/04/09 12:02:24;;;;;;;5.82;3.05;;;;;;;;;;5058379;28;20024;-75
2022/04/09 12:04:50;;;;;;;6.68;5.18;;;;;;;;;;5059569;28;20508;-76
2022/04/09 12:07:16;;;;;;;5.00;2.95;;;;;;;;;;5057504;28;20017;-76
2022/04/09 12:09:41;;;;;;;3.90;2.20;;;;;;;;;;5058909;28;20033;-74
2022/04/09 12:12:07;;;;;;;5.53;1.83;;;;;;;;;;5061018;28;20029;-73
2022/04/09 12:14:33;;;;;;;3.45;1.52;;;;;;;;;;5061335;28;20024;-75
2022/04/09 12:17:08;;;;;;;2.08;1.20;;;;;;;;;;5060293;28;20090;-74
2022/04/09 12:19:33;;;;;;;8.20;2.03;;;;;;;;;;5059133;28;20032;-76
2022/04/09 12:22:17;;;;;;;3.97;1.83;;;;;;;;;;5058565;28;20462;-75
2022/04/09 12:24:49;;;;;;;7.85;2.65;;;;;;;;;;5057583;28;20097;-75
2022/04/09 12:27:14;;;;;;;4.88;2.00;;;;;;;;;;5056468;28;20032;-76
2022/04/09 12:29:51;;;;;;;10.85;2.10;;;;;;;;;;5059722;28;20036;-76
2022/04/09 12:32:23;;;;;;;6.75;1.98;;;;;;;;;;5059623;28;20344;-75
2022/04/09 12:34:56;;;;;;;3.90;2.20;;;;;;;;;;5060416;28;20021;-78
2022/04/09 12:37:22;;;;;;;4.25;1.75;;;;;;;;;;5059326;28;20090;-75
2022/04/09 12:39:48;;;;;;;4.82;1.90;;;;;;;;;;5061303;28;20029;-75
2022/04/09 12:42:15;;;;;;;2.45;1.85;;;;;;;;;;5059753;28;20461;-77
2022/04/09 12:44:41;;;;;;;5.97;2.70;;;;;;;;;;5058380;28;20459;-77
2022/04/09 12:47:08;;;;;;;8.85;2.05;;;;;;;;;;5058110;28;20481;-76
2022/04/09 12:49:36;;;;;;;6.60;1.95;;;;;;;;;;5058480;28;20054;-75
2022/04/09 12:52:03;;;;;;;4.72;2.22;;;;;;;;;;5040013;28;20025;-78
2022/04/09 12:54:29;;;;;;;4.03;1.70;;;;;;;;;;5061052;28;20062;-75
2022/04/09 12:56:55;;;;;;;4.88;1.58;;;;;;;;;;5060229;28;20108;-76
2022/04/09 12:59:20;;;;;;;7.70;1.95;;;;;;;;;;5052239;28;20127;-76
2022/04/09 13:01:46;;;;;;;4.65;2.20;;;;;;;;;;5045174;28;20114;-75
2022/04/09 13:04:12;;;;;;;4.07;2.30;;;;;;;;;;5045964;28;20028;-76
2022/04/09 13:06:40;;;;;;;5.90;2.53;;;;;;;;;;5027534;28;20699;-77
2022/04/09 13:09:08;;;;;;;3.72;1.65;;;;;;;;;;5046396;28;20036;-76
2022/04/09 13:11:33;;;;;;;5.13;1.92;;;;;;;;;;5044754;28;20439;-76
2022/04/09 13:13:58;;;;;;;5.32;1.70;;;;;;;;;;5043331;28;20024;-78
2022/04/09 13:16:24;;;;;;;4.45;2.28;;;;;;;;;;5043666;28;20020;-78
2022/04/09 13:18:49;;;;;;;5.82;2.55;;;;;;;;;;5044969;28;20043;-76
2022/04/09 13:21:14;;;;;;;6.38;2.10;;;;;;;;;;5046079;28;20043;-76
2022/04/09 13:23:40;;;;;;;5.25;2.72;;;;;;;;;;5043892;28;20028;-77
2022/04/09 13:26:05;;;;;;;4.22;1.70;;;;;;;;;;5044563;28;20028;-77
2022/04/09 13:28:31;;;;;;;7.45;2.22;;;;;;;;;;5043883;28;20448;-79
2022/04/09 13:30:59;;;;;;;5.15;2.28;;;;;;;;;;5022427;28;20028;-78
2022/04/09 13:33:24;;;;;;;5.78;2.35;;;;;;;;;;5044390;28;20025;-77
2022/04/09 13:35:49;;;;;;;4.40;1.98;;;;;;;;;;5046253;28;20450;-76
2022/04/09 13:38:16;;;;;;;3.92;2.13;;;;;;;;;;5046120;28;20105;-77
2022/04/09 13:40:42;;;;;;;7.90;2.55;;;;;;;;;;5043352;28;20033;-78
2022/04/09 13:43:08;;;;;;;10.23;4.78;;;;;;;;;;5046781;28;20074;-77
2022/04/09 13:45:33;;;;;;;5.18;2.97;;;;;;;;;;5044353;28;20037;-76
2022/04/09 13:47:58;;;;;;;4.38;2.38;;;;;;;;;;5043151;28;20092;-76
2022/04/09 13:50:24;;;;;;;8.80;2.85;;;;;;;;;;5045057;28;20432;-79
2022/04/09 13:52:49;;;;;;;6.30;2.67;;;;;;;;;;5043768;28;20039;-76
2022/04/09 13:55:15;;;;;;;6.03;2.30;;;;;;;;;;5038442;28;20363;-79
2022/04/09 13:57:40;;;;;;;6.10;2.60;;;;;;;;;;5024562;28;20020;-78
2022/04/09 14:00:06;;;;;;;10.05;5.45;;;;;;;;;;5042468;28;20036;-75
2022/04/09 14:02:32;;;;;;;13.80;5.60;;;;;;;;;;5044710;28;20024;-73
2022/04/09 14:05:05;;;;;;;5.82;3.65;;;;;;;;;;5023849;28;20021;-76
2022/04/09 14:07:31;;;;;;;8.73;2.67;;;;;;;;;;5043881;28;20024;-76
2022/04/09 14:09:56;;;;;;;4.10;1.80;;;;;;;;;;5041017;28;20033;-76
2022/04/09 14:12:22;;;;;;;7.07;3.92;;;;;;;;;;5043580;28;20037;-78
2022/04/09 14:14:47;;;;;;;3.65;1.73;;;;;;;;;;5044737;28;20321;-73
2022/04/09 14:17:13;;;;;;;5.80;2.45;;;;;;;;;;5044011;28;20021;-75
2022/04/09 14:19:38;;;;;;;5.15;2.10;;;;;;;;;;5044000;28;20115;-77
2022/04/09 14:22:04;;;;;;;1.60;1.50;;;;;;;;;;5043692;28;20039;-75
2022/04/09 14:24:29;;;;;;;3.83;2.13;;;;;;;;;;5042654;28;20033;-76
2022/04/09 14:26:55;;;;;;;4.53;1.90;;;;;;;;;;5041505;28;20385;-78
2022/04/09 14:29:20;;;;;;;4.63;1.90;;;;;;;;;;5041808;28;20120;-76
2022/04/09 14:31:46;;;;;;;5.63;2.00;;;;;;;;;;5043837;28;20060;-74
2022/04/09 14:34:11;;;;;;;6.13;2.60;;;;;;;;;;5048266;28;20033;-77
2022/04/09 14:36:36;;;;;;;7.95;2.63;;;;;;;;;;5026333;28;20028;-75